BTK6227 WIOO-WIII
Flight info
| Callsign | BTK6227 |
|---|---|
| Flight time | N/A |
| Altitude | 34000 |
| Route | MASRI W38 AMBOY |
| Aircraft | A320/M-SDE3FGHIRWY/LB1 |
Departure
| Time | 2026-05-01 10:08 |
|---|---|
| Airport | Supadio International Airport (WIOO) |
Arrival
| Time | N/A |
|---|---|
| Airport | Soekarno-Hatta International Airport (WIII) |
| Time | Latitude | Longitude | Altitude | Speed | Heading |
|---|---|---|---|---|---|
| 2026-05-01 09:49 | -0.14809 | 109.40434 | 32 ft | 0 kts | 67° |
| 2026-05-01 10:02 | -0.14812 | 109.40428 | 32 ft | 2 kts | 65° |
| 2026-05-01 10:02 | -0.14822 | 109.40411 | 32 ft | 3 kts | 49° |
| 2026-05-01 10:03 | -0.14836 | 109.40397 | 32 ft | 3 kts | 28° |
| 2026-05-01 10:03 | -0.14854 | 109.40391 | 32 ft | 3 kts | 357° |
| 2026-05-01 10:03 | -0.14865 | 109.40392 | 30 ft | 0 kts | 339° |
| 2026-05-01 10:05 | -0.14848 | 109.40386 | 31 ft | 8 kts | 339° |
| 2026-05-01 10:05 | -0.14778 | 109.40358 | 32 ft | 11 kts | 338° |
| 2026-05-01 10:05 | -0.14702 | 109.40328 | 32 ft | 14 kts | 338° |
| 2026-05-01 10:05 | -0.14601 | 109.40287 | 32 ft | 17 kts | 338° |
| 2026-05-01 10:06 | -0.14480 | 109.40239 | 31 ft | 12 kts | 339° |
| 2026-05-01 10:06 | -0.14424 | 109.40214 | 31 ft | 6 kts | 316° |
| 2026-05-01 10:06 | -0.14428 | 109.40175 | 31 ft | 8 kts | 249° |
| 2026-05-01 10:06 | -0.14398 | 109.40108 | 31 ft | 17 kts | 335° |
| 2026-05-01 10:07 | -0.14275 | 109.40058 | 32 ft | 20 kts | 338° |
| 2026-05-01 10:07 | -0.14184 | 109.39988 | 33 ft | 14 kts | 324° |
| 2026-05-01 10:07 | -0.14171 | 109.40018 | 32 ft | 9 kts | 156° |
| 2026-05-01 10:07 | -0.14241 | 109.40046 | 32 ft | 23 kts | 159° |
| 2026-05-01 10:08 | -0.15479 | 109.40551 | 31 ft | 156 kts | 157° |
| 2026-05-01 10:08 | -0.16572 | 109.40985 | 488 ft | 168 kts | 159° |
| 2026-05-01 10:08 | -0.17638 | 109.41414 | 1222 ft | 167 kts | 158° |
| 2026-05-01 10:09 | -0.18767 | 109.41650 | 1873 ft | 170 kts | 186° |
| 2026-05-01 10:09 | -0.19993 | 109.41500 | 2343 ft | 187 kts | 192° |
| 2026-05-01 10:09 | -0.21323 | 109.41204 | 2789 ft | 205 kts | 188° |
| 2026-05-01 10:09 | -0.22815 | 109.41094 | 3196 ft | 223 kts | 189° |
| 2026-05-01 10:10 | -0.24425 | 109.40846 | 3588 ft | 245 kts | 187° |
| 2026-05-01 10:10 | -0.26143 | 109.40700 | 4375 ft | 250 kts | 185° |
| 2026-05-01 10:10 | -0.29639 | 109.40471 | 6021 ft | 254 kts | 184° |
| 2026-05-01 10:11 | -0.31403 | 109.40349 | 6782 ft | 256 kts | 184° |
| 2026-05-01 10:11 | -0.33192 | 109.40212 | 7515 ft | 259 kts | 184° |
| 2026-05-01 10:11 | -0.34997 | 109.40063 | 8236 ft | 262 kts | 184° |
| 2026-05-01 10:11 | -0.36825 | 109.39906 | 8987 ft | 266 kts | 185° |
| 2026-05-01 10:12 | -0.38664 | 109.39749 | 9785 ft | 267 kts | 184° |
| 2026-05-01 10:12 | -0.39895 | 109.39644 | 10269 ft | 270 kts | 184° |
| 2026-05-01 10:12 | -0.44345 | 109.39252 | 11918 ft | 280 kts | 185° |
| 2026-05-01 10:13 | -0.46323 | 109.39077 | 12356 ft | 295 kts | 185° |
| 2026-05-01 10:13 | -0.48440 | 109.38889 | 12523 ft | 317 kts | 185° |
| 2026-05-01 10:13 | -0.50719 | 109.38687 | 12662 ft | 340 kts | 185° |
| 2026-05-01 10:14 | -0.55661 | 109.38252 | 13300 ft | 366 kts | 185° |
| 2026-05-01 10:14 | -0.58196 | 109.38027 | 13891 ft | 370 kts | 184° |
| 2026-05-01 10:14 | -0.60794 | 109.37799 | 14487 ft | 374 kts | 184° |
| 2026-05-01 10:14 | -0.63401 | 109.37567 | 15070 ft | 378 kts | 184° |
| 2026-05-01 10:15 | -0.66029 | 109.37333 | 15628 ft | 381 kts | 184° |
| 2026-05-01 10:15 | -0.68689 | 109.37100 | 16162 ft | 385 kts | 184° |
| 2026-05-01 10:15 | -0.71367 | 109.36867 | 16693 ft | 389 kts | 184° |
| 2026-05-01 10:15 | -0.74036 | 109.36631 | 17203 ft | 392 kts | 184° |
| 2026-05-01 10:16 | -0.76762 | 109.36388 | 17707 ft | 395 kts | 184° |
| 2026-05-01 10:16 | -0.79512 | 109.36144 | 18197 ft | 399 kts | 184° |
| 2026-05-01 10:16 | -0.85085 | 109.35650 | 19134 ft | 405 kts | 184° |
| 2026-05-01 10:17 | -0.87900 | 109.35403 | 19583 ft | 408 kts | 183° |
| 2026-05-01 10:17 | -0.93595 | 109.34893 | 20443 ft | 414 kts | 184° |
| 2026-05-01 10:17 | -0.96476 | 109.34596 | 20865 ft | 417 kts | 185° |
| 2026-05-01 10:18 | -1.02281 | 109.33941 | 21652 ft | 423 kts | 185° |
| 2026-05-01 10:18 | -1.05217 | 109.33602 | 22033 ft | 426 kts | 185° |
| 2026-05-01 10:18 | -1.08175 | 109.33266 | 22415 ft | 429 kts | 185° |
| 2026-05-01 10:19 | -1.11149 | 109.32935 | 22789 ft | 432 kts | 185° |
| 2026-05-01 10:19 | -1.14145 | 109.32608 | 23150 ft | 434 kts | 184° |
| 2026-05-01 10:19 | -1.17160 | 109.32283 | 23506 ft | 437 kts | 184° |
| 2026-05-01 10:20 | -1.23229 | 109.31632 | 23842 ft | 440 kts | 184° |
| 2026-05-01 10:20 | -1.26273 | 109.31301 | 23841 ft | 439 kts | 184° |
| 2026-05-01 10:20 | -1.29311 | 109.30968 | 23842 ft | 439 kts | 184° |
| 2026-05-01 10:20 | -1.32339 | 109.30567 | 23840 ft | 441 kts | 190° |
| 2026-05-01 10:21 | -1.35291 | 109.29721 | 23858 ft | 444 kts | 200° |
| 2026-05-01 10:21 | -1.40800 | 109.26845 | 24539 ft | 450 kts | 208° |
| 2026-05-01 10:21 | -1.43534 | 109.25318 | 24879 ft | 451 kts | 208° |
| 2026-05-01 10:22 | -1.49053 | 109.22260 | 25520 ft | 455 kts | 208° |
| 2026-05-01 10:22 | -1.54611 | 109.19178 | 26128 ft | 459 kts | 208° |
| 2026-05-01 10:23 | -1.57402 | 109.17625 | 26421 ft | 460 kts | 208° |
| 2026-05-01 10:23 | -1.63017 | 109.14500 | 26993 ft | 464 kts | 208° |
| 2026-05-01 10:23 | -1.65842 | 109.12932 | 27275 ft | 465 kts | 208° |
| 2026-05-01 10:24 | -1.71516 | 109.09771 | 27817 ft | 469 kts | 208° |
| 2026-05-01 10:24 | -1.77229 | 109.06585 | 28340 ft | 471 kts | 208° |
| 2026-05-01 10:25 | -1.82976 | 109.03387 | 28818 ft | 474 kts | 208° |
| 2026-05-01 10:25 | -1.88765 | 109.00174 | 29301 ft | 477 kts | 208° |
| 2026-05-01 10:26 | -1.91664 | 108.98560 | 29529 ft | 478 kts | 208° |
| 2026-05-01 10:26 | -1.94576 | 108.96938 | 29759 ft | 480 kts | 208° |
| 2026-05-01 10:26 | -2.00421 | 108.93689 | 30196 ft | 482 kts | 208° |
| 2026-05-01 10:27 | -2.06274 | 108.90433 | 30780 ft | 481 kts | 208° |
| 2026-05-01 10:27 | -2.12112 | 108.87183 | 31415 ft | 479 kts | 208° |
| 2026-05-01 10:28 | -2.15018 | 108.85567 | 31733 ft | 478 kts | 208° |
| 2026-05-01 10:28 | -2.20814 | 108.82334 | 32340 ft | 476 kts | 209° |
| 2026-05-01 10:28 | -2.23701 | 108.80725 | 32653 ft | 475 kts | 208° |
| 2026-05-01 10:29 | -2.29470 | 108.77514 | 33228 ft | 474 kts | 208° |
| 2026-05-01 10:29 | -2.31379 | 108.76452 | 33430 ft | 474 kts | 208° |
| 2026-05-01 10:30 | -2.37131 | 108.73258 | 33823 ft | 472 kts | 208° |
| 2026-05-01 10:30 | -2.42855 | 108.70077 | 33833 ft | 470 kts | 208° |
| 2026-05-01 10:31 | -2.54791 | 108.64947 | 33829 ft | 469 kts | 196° |
| 2026-05-01 10:32 | -2.64148 | 108.62104 | 33829 ft | 468 kts | 196° |
| 2026-05-01 10:33 | -2.76614 | 108.58308 | 33826 ft | 468 kts | 196° |
| 2026-05-01 10:34 | -2.85964 | 108.55465 | 33827 ft | 468 kts | 196° |
| 2026-05-01 10:34 | -2.92190 | 108.53574 | 33828 ft | 468 kts | 196° |
| 2026-05-01 10:35 | -3.01530 | 108.50725 | 33822 ft | 467 kts | 196° |
| 2026-05-01 10:35 | -3.07755 | 108.48832 | 33828 ft | 468 kts | 196° |
| 2026-05-01 10:36 | -3.17091 | 108.46000 | 33827 ft | 467 kts | 196° |
| 2026-05-01 10:37 | -3.23271 | 108.44116 | 33830 ft | 467 kts | 196° |
| 2026-05-01 10:37 | -3.32608 | 108.41276 | 33827 ft | 468 kts | 196° |
| 2026-05-01 10:38 | -3.38835 | 108.39381 | 33829 ft | 467 kts | 196° |
| 2026-05-01 10:38 | -3.45051 | 108.37486 | 33830 ft | 467 kts | 196° |
| 2026-05-01 10:39 | -3.51267 | 108.35589 | 33831 ft | 467 kts | 196° |
| 2026-05-01 10:39 | -3.57482 | 108.33695 | 33829 ft | 467 kts | 196° |
| 2026-05-01 10:40 | -3.63701 | 108.31802 | 33828 ft | 467 kts | 196° |
| 2026-05-01 10:40 | -3.69923 | 108.29911 | 33827 ft | 467 kts | 196° |
| 2026-05-01 10:41 | -3.76144 | 108.28012 | 33831 ft | 467 kts | 196° |
| 2026-05-01 10:42 | -3.85471 | 108.25158 | 33835 ft | 467 kts | 196° |
| 2026-05-01 10:42 | -3.91696 | 108.23251 | 33833 ft | 468 kts | 198° |
| 2026-05-01 10:42 | -3.94643 | 108.21889 | 33832 ft | 468 kts | 213° |
| 2026-05-01 10:43 | -3.97144 | 108.19811 | 33836 ft | 468 kts | 228° |
| 2026-05-01 10:43 | -3.99021 | 108.17161 | 33834 ft | 467 kts | 240° |
| 2026-05-01 10:43 | -4.00608 | 108.14319 | 33836 ft | 468 kts | 240° |
| 2026-05-01 10:44 | -4.03801 | 108.08629 | 33829 ft | 469 kts | 240° |
| 2026-05-01 10:44 | -4.07043 | 108.02876 | 33836 ft | 477 kts | 240° |
| 2026-05-01 10:45 | -4.10286 | 107.97143 | 33848 ft | 471 kts | 240° |
| 2026-05-01 10:45 | -4.13493 | 107.91477 | 33850 ft | 470 kts | 240° |
| 2026-05-01 10:46 | -4.16707 | 107.85773 | 33850 ft | 470 kts | 240° |
| 2026-05-01 10:46 | -4.19920 | 107.80065 | 33840 ft | 470 kts | 240° |
| 2026-05-01 10:47 | -4.23142 | 107.74365 | 33839 ft | 470 kts | 240° |
| 2026-05-01 10:47 | -4.26363 | 107.68657 | 33836 ft | 470 kts | 240° |
| 2026-05-01 10:48 | -4.29573 | 107.62952 | 33833 ft | 470 kts | 240° |
| 2026-05-01 10:48 | -4.32786 | 107.57246 | 33828 ft | 470 kts | 240° |
| 2026-05-01 10:49 | -4.36010 | 107.51543 | 33827 ft | 470 kts | 240° |
| 2026-05-01 10:49 | -4.39227 | 107.45837 | 33828 ft | 470 kts | 240° |
| 2026-05-01 10:50 | -4.42439 | 107.40124 | 33824 ft | 471 kts | 240° |
| 2026-05-01 10:50 | -4.45656 | 107.34396 | 33513 ft | 472 kts | 241° |
| 2026-05-01 10:50 | -4.47264 | 107.31533 | 33269 ft | 472 kts | 241° |
| 2026-05-01 10:51 | -4.48880 | 107.28658 | 33017 ft | 473 kts | 241° |
| 2026-05-01 10:51 | -4.50498 | 107.25785 | 32770 ft | 474 kts | 240° |
| 2026-05-01 10:51 | -4.52121 | 107.22907 | 32521 ft | 475 kts | 241° |
| 2026-05-01 10:51 | -4.53745 | 107.20020 | 32276 ft | 475 kts | 241° |
| 2026-05-01 10:52 | -4.55368 | 107.17134 | 32028 ft | 476 kts | 240° |
| 2026-05-01 10:52 | -4.56996 | 107.14243 | 31782 ft | 476 kts | 241° |
| 2026-05-01 10:52 | -4.58625 | 107.11345 | 31531 ft | 477 kts | 240° |
| 2026-05-01 10:52 | -4.60254 | 107.08452 | 31277 ft | 478 kts | 240° |
| 2026-05-01 10:53 | -4.61891 | 107.05550 | 31035 ft | 479 kts | 240° |
| 2026-05-01 10:53 | -4.63529 | 107.02645 | 30784 ft | 479 kts | 240° |
| 2026-05-01 10:53 | -4.65166 | 106.99740 | 30541 ft | 477 kts | 240° |
| 2026-05-01 10:53 | -4.66790 | 106.96849 | 30285 ft | 475 kts | 240° |
| 2026-05-01 10:54 | -4.68403 | 106.93969 | 30044 ft | 474 kts | 240° |
| 2026-05-01 10:54 | -4.70016 | 106.91090 | 29790 ft | 473 kts | 240° |
| 2026-05-01 10:54 | -4.71622 | 106.88226 | 29540 ft | 470 kts | 240° |
| 2026-05-01 10:54 | -4.73227 | 106.85372 | 29292 ft | 469 kts | 240° |
| 2026-05-01 10:55 | -4.74825 | 106.82532 | 29042 ft | 467 kts | 240° |
| 2026-05-01 10:55 | -4.76416 | 106.79704 | 28818 ft | 465 kts | 240° |
| 2026-05-01 10:55 | -4.77999 | 106.76882 | 28866 ft | 465 kts | 240° |
| 2026-05-01 10:56 | -4.81189 | 106.71226 | 28860 ft | 466 kts | 238° |
| 2026-05-01 10:56 | -4.83223 | 106.68715 | 28853 ft | 465 kts | 221° |
| 2026-05-01 10:56 | -4.85869 | 106.66876 | 28861 ft | 464 kts | 205° |
| 2026-05-01 10:56 | -4.88899 | 106.65845 | 28809 ft | 458 kts | 189° |
| 2026-05-01 10:57 | -4.92071 | 106.65690 | 28557 ft | 456 kts | 173° |
| 2026-05-01 10:57 | -4.95135 | 106.66418 | 28309 ft | 452 kts | 156° |
| 2026-05-01 10:57 | -4.97972 | 106.67695 | 28057 ft | 444 kts | 154° |
| 2026-05-01 10:57 | -5.00785 | 106.68995 | 27814 ft | 447 kts | 154° |
| 2026-05-01 10:58 | -5.03618 | 106.70301 | 27565 ft | 448 kts | 154° |
| 2026-05-01 10:58 | -5.06427 | 106.71589 | 27299 ft | 439 kts | 154° |
| 2026-05-01 10:58 | -5.09191 | 106.72854 | 27050 ft | 435 kts | 154° |
| 2026-05-01 10:58 | -5.11941 | 106.74110 | 26799 ft | 433 kts | 154° |
| 2026-05-01 10:59 | -5.14679 | 106.75361 | 26552 ft | 431 kts | 154° |
| 2026-05-01 10:59 | -5.17399 | 106.76604 | 26286 ft | 428 kts | 154° |
| 2026-05-01 10:59 | -5.20089 | 106.77829 | 25804 ft | 421 kts | 154° |
| 2026-05-01 10:59 | -5.22717 | 106.79019 | 25174 ft | 407 kts | 154° |
| 2026-05-01 11:00 | -5.25251 | 106.80162 | 24648 ft | 392 kts | 154° |
| 2026-05-01 11:00 | -5.27713 | 106.81272 | 24105 ft | 388 kts | 154° |
| 2026-05-01 11:00 | -5.30217 | 106.82406 | 23873 ft | 403 kts | 154° |
| 2026-05-01 11:00 | -5.32791 | 106.83581 | 23829 ft | 410 kts | 154° |
| 2026-05-01 11:01 | -5.35394 | 106.84764 | 23366 ft | 409 kts | 154° |
| 2026-05-01 11:01 | -5.37976 | 106.85933 | 22312 ft | 406 kts | 154° |
| 2026-05-01 11:01 | -5.40527 | 106.87085 | 21563 ft | 396 kts | 154° |
| 2026-05-01 11:01 | -5.42987 | 106.88194 | 21067 ft | 380 kts | 155° |
| 2026-05-01 11:02 | -5.45467 | 106.88990 | 20718 ft | 369 kts | 169° |
| 2026-05-01 11:02 | -5.47994 | 106.89187 | 21053 ft | 365 kts | 180° |
| 2026-05-01 11:02 | -5.50592 | 106.88887 | 20438 ft | 388 kts | 193° |
| 2026-05-01 11:02 | -5.53146 | 106.87972 | 19911 ft | 388 kts | 201° |
| 2026-05-01 11:03 | -5.55617 | 106.86978 | 19662 ft | 378 kts | 200° |
| 2026-05-01 11:03 | -5.58036 | 106.86029 | 18918 ft | 372 kts | 200° |
| 2026-05-01 11:03 | -5.60426 | 106.85106 | 18383 ft | 364 kts | 200° |
| 2026-05-01 11:03 | -5.62793 | 106.84200 | 17914 ft | 363 kts | 200° |
| 2026-05-01 11:04 | -5.65144 | 106.83300 | 17436 ft | 360 kts | 200° |
| 2026-05-01 11:04 | -5.67474 | 106.82407 | 16936 ft | 357 kts | 200° |
| 2026-05-01 11:04 | -5.69788 | 106.81516 | 16466 ft | 356 kts | 200° |
| 2026-05-01 11:04 | -5.72106 | 106.80624 | 16026 ft | 356 kts | 200° |
| 2026-05-01 11:05 | -5.74401 | 106.79739 | 15651 ft | 352 kts | 200° |
| 2026-05-01 11:05 | -5.76662 | 106.78866 | 15212 ft | 351 kts | 200° |
| 2026-05-01 11:05 | -5.78941 | 106.77986 | 14731 ft | 343 kts | 200° |
| 2026-05-01 11:05 | -5.81154 | 106.77131 | 14105 ft | 337 kts | 200° |
| 2026-05-01 11:06 | -5.83299 | 106.76297 | 13657 ft | 334 kts | 202° |
| 2026-05-01 11:06 | -5.85308 | 106.75132 | 13205 ft | 335 kts | 218° |
| 2026-05-01 11:06 | -5.86940 | 106.73476 | 12801 ft | 334 kts | 233° |
| 2026-05-01 11:07 | -5.88947 | 106.69341 | 11602 ft | 326 kts | 248° |
| 2026-05-01 11:07 | -5.89775 | 106.67245 | 11081 ft | 321 kts | 248° |
| 2026-05-01 11:07 | -5.90598 | 106.65172 | 10550 ft | 319 kts | 247° |
| 2026-05-01 11:07 | -5.91419 | 106.63123 | 10116 ft | 310 kts | 248° |
| 2026-05-01 11:08 | -5.92197 | 106.61175 | 9839 ft | 294 kts | 247° |
| 2026-05-01 11:08 | -5.92937 | 106.59330 | 9688 ft | 281 kts | 247° |
| 2026-05-01 11:08 | -5.94398 | 106.55713 | 8827 ft | 281 kts | 246° |
| 2026-05-01 11:09 | -5.95143 | 106.53887 | 8688 ft | 282 kts | 246° |
| 2026-05-01 11:09 | -5.95886 | 106.52061 | 8555 ft | 283 kts | 246° |
| 2026-05-01 11:09 | -5.96628 | 106.50238 | 8450 ft | 282 kts | 247° |
| 2026-05-01 11:10 | -5.98118 | 106.46619 | 8191 ft | 278 kts | 246° |
| 2026-05-01 11:10 | -5.98856 | 106.44818 | 8070 ft | 279 kts | 246° |
| 2026-05-01 11:10 | -5.99590 | 106.43009 | 7944 ft | 280 kts | 247° |
| 2026-05-01 11:10 | -6.00323 | 106.41203 | 7836 ft | 279 kts | 246° |
| 2026-05-01 11:11 | -6.01057 | 106.39403 | 7653 ft | 278 kts | 246° |
| 2026-05-01 11:11 | -6.01789 | 106.37611 | 7437 ft | 277 kts | 246° |
| 2026-05-01 11:11 | -6.02511 | 106.35829 | 7284 ft | 270 kts | 247° |
| 2026-05-01 11:11 | -6.03199 | 106.34130 | 7166 ft | 257 kts | 246° |
| 2026-05-01 11:12 | -6.04126 | 106.32672 | 7053 ft | 243 kts | 221° |
| 2026-05-01 11:12 | -6.05559 | 106.31868 | 6992 ft | 235 kts | 192° |
| 2026-05-01 11:12 | -6.07186 | 106.31816 | 6915 ft | 239 kts | 171° |
| 2026-05-01 11:12 | -6.08852 | 106.32088 | 6441 ft | 245 kts | 169° |
| 2026-05-01 11:13 | -6.10519 | 106.32394 | 6167 ft | 242 kts | 168° |
| 2026-05-01 11:13 | -6.12149 | 106.32697 | 5911 ft | 234 kts | 169° |
| 2026-05-01 11:13 | -6.13744 | 106.32978 | 5683 ft | 232 kts | 169° |
| 2026-05-01 11:13 | -6.15313 | 106.33258 | 5455 ft | 227 kts | 169° |
| 2026-05-01 11:14 | -6.16842 | 106.33533 | 5233 ft | 224 kts | 169° |
| 2026-05-01 11:14 | -6.18368 | 106.33806 | 5127 ft | 215 kts | 169° |
| 2026-05-01 11:14 | -6.19773 | 106.34149 | 5041 ft | 207 kts | 155° |
| 2026-05-01 11:14 | -6.20938 | 106.34973 | 4933 ft | 206 kts | 131° |
| 2026-05-01 11:15 | -6.21737 | 106.36160 | 4764 ft | 206 kts | 122° |
| 2026-05-01 11:15 | -6.22487 | 106.37384 | 4581 ft | 205 kts | 122° |
| 2026-05-01 11:15 | -6.23227 | 106.38608 | 4410 ft | 205 kts | 115° |
| 2026-05-01 11:15 | -6.23592 | 106.39983 | 4245 ft | 204 kts | 93° |
| 2026-05-01 11:16 | -6.23403 | 106.41381 | 4092 ft | 203 kts | 70° |
| 2026-05-01 11:16 | -6.23036 | 106.42266 | 4036 ft | 204 kts | 69° |
| 2026-05-01 11:16 | -6.22517 | 106.43590 | 4009 ft | 204 kts | 69° |
| 2026-05-01 11:16 | -6.21997 | 106.44918 | 3983 ft | 204 kts | 69° |
| 2026-05-01 11:17 | -6.21491 | 106.46194 | 3809 ft | 191 kts | 69° |
| 2026-05-01 11:17 | -6.21012 | 106.47393 | 3546 ft | 180 kts | 69° |
| 2026-05-01 11:17 | -6.20564 | 106.48521 | 3322 ft | 169 kts | 69° |
| 2026-05-01 11:17 | -6.20140 | 106.49587 | 3100 ft | 161 kts | 69° |
| 2026-05-01 11:18 | -6.19732 | 106.50614 | 2896 ft | 156 kts | 69° |
| 2026-05-01 11:18 | -6.19330 | 106.51623 | 2696 ft | 155 kts | 69° |
| 2026-05-01 11:18 | -6.18932 | 106.52627 | 2487 ft | 155 kts | 69° |
| 2026-05-01 11:18 | -6.18535 | 106.53630 | 2299 ft | 154 kts | 69° |
| 2026-05-01 11:19 | -6.18136 | 106.54626 | 2083 ft | 154 kts | 69° |
| 2026-05-01 11:19 | -6.17737 | 106.55624 | 1877 ft | 154 kts | 69° |
| 2026-05-01 11:19 | -6.17331 | 106.56646 | 1680 ft | 154 kts | 69° |
| 2026-05-01 11:19 | -6.16943 | 106.57619 | 1470 ft | 154 kts | 70° |
| 2026-05-01 11:20 | -6.16545 | 106.58618 | 1267 ft | 154 kts | 70° |
| 2026-05-01 11:20 | -6.16147 | 106.59616 | 1062 ft | 154 kts | 70° |
| 2026-05-01 11:20 | -6.15739 | 106.60646 | 834 ft | 153 kts | 69° |
| 2026-05-01 11:20 | -6.15347 | 106.61603 | 602 ft | 152 kts | 69° |
| 2026-05-01 11:21 | -6.14953 | 106.62605 | 414 ft | 150 kts | 70° |
| 2026-05-01 11:21 | -6.14572 | 106.63569 | 258 ft | 151 kts | 69° |
| 2026-05-01 11:21 | -6.14177 | 106.64544 | 74 ft | 150 kts | 69° |
| 2026-05-01 11:21 | -6.13810 | 106.65466 | 110 ft | 133 kts | 70° |
| 2026-05-01 11:22 | -6.13445 | 106.66414 | 691 ft | 154 kts | 70° |
| 2026-05-01 11:22 | -6.13011 | 106.67469 | 1376 ft | 180 kts | 69° |
| 2026-05-01 11:22 | -6.12517 | 106.68706 | 2073 ft | 198 kts | 69° |
| 2026-05-01 11:22 | -6.11969 | 106.70056 | 2499 ft | 219 kts | 68° |
| 2026-05-01 11:23 | -6.11358 | 106.71483 | 3232 ft | 224 kts | 68° |
| 2026-05-01 11:23 | -6.10686 | 106.72916 | 3827 ft | 230 kts | 62° |
| 2026-05-01 11:23 | -6.09909 | 106.74288 | 3971 ft | 227 kts | 61° |
| 2026-05-01 11:23 | -6.09104 | 106.75660 | 4010 ft | 228 kts | 60° |
| 2026-05-01 11:24 | -6.08297 | 106.77026 | 4008 ft | 228 kts | 60° |
| 2026-05-01 11:24 | -6.07485 | 106.78397 | 4004 ft | 228 kts | 60° |
| 2026-05-01 11:24 | -6.05859 | 106.81137 | 3999 ft | 228 kts | 60° |
| 2026-05-01 11:25 | -6.05044 | 106.82504 | 4007 ft | 228 kts | 60° |
| 2026-05-01 11:25 | -6.02520 | 106.84198 | 4005 ft | 232 kts | 0° |
| 2026-05-01 11:25 | -6.00972 | 106.83789 | 4003 ft | 234 kts | 327° |
| 2026-05-01 11:26 | -5.99885 | 106.82601 | 4004 ft | 233 kts | 294° |
| 2026-05-01 11:26 | -5.99439 | 106.79410 | 4016 ft | 231 kts | 270° |
| 2026-05-01 11:26 | -5.99629 | 106.77822 | 4005 ft | 229 kts | 251° |
| 2026-05-01 11:27 | -6.00112 | 106.76295 | 4018 ft | 230 kts | 251° |
| 2026-05-01 11:27 | -6.00605 | 106.74762 | 4004 ft | 231 kts | 250° |
| 2026-05-01 11:27 | -6.01108 | 106.73231 | 4011 ft | 231 kts | 250° |
| 2026-05-01 11:27 | -6.01617 | 106.71701 | 4014 ft | 231 kts | 250° |
| 2026-05-01 11:28 | -6.02128 | 106.70167 | 4021 ft | 232 kts | 250° |
| 2026-05-01 11:28 | -6.02637 | 106.68637 | 4016 ft | 231 kts | 250° |
| 2026-05-01 11:28 | -6.03150 | 106.67107 | 4002 ft | 231 kts | 250° |
| 2026-05-01 11:29 | -6.04172 | 106.64066 | 3554 ft | 229 kts | 250° |
| 2026-05-01 11:29 | -6.04682 | 106.62553 | 3252 ft | 228 kts | 250° |
| 2026-05-01 11:29 | -6.05708 | 106.59562 | 3008 ft | 227 kts | 250° |
| 2026-05-01 11:30 | -6.06222 | 106.58068 | 3018 ft | 227 kts | 250° |
| 2026-05-01 11:30 | -6.06740 | 106.56571 | 3013 ft | 227 kts | 250° |
| 2026-05-01 11:30 | -6.07260 | 106.55077 | 3011 ft | 227 kts | 250° |
| 2026-05-01 11:30 | -6.07780 | 106.53582 | 3010 ft | 226 kts | 250° |
| 2026-05-01 11:31 | -6.08352 | 106.52110 | 3005 ft | 227 kts | 246° |
| 2026-05-01 11:31 | -6.08945 | 106.50642 | 3015 ft | 227 kts | 249° |
| 2026-05-01 11:31 | -6.09478 | 106.49151 | 3010 ft | 227 kts | 250° |
| 2026-05-01 11:31 | -6.10001 | 106.47656 | 3012 ft | 227 kts | 250° |
| 2026-05-01 11:32 | -6.10521 | 106.46162 | 3010 ft | 227 kts | 250° |
| 2026-05-01 11:32 | -6.11036 | 106.44685 | 3010 ft | 227 kts | 250° |
| 2026-05-01 11:32 | -6.11560 | 106.43190 | 3009 ft | 226 kts | 250° |
| 2026-05-01 11:32 | -6.12089 | 106.41685 | 3014 ft | 226 kts | 250° |
| 2026-05-01 11:33 | -6.12613 | 106.40195 | 3010 ft | 226 kts | 250° |
| 2026-05-01 11:33 | -6.13343 | 106.38815 | 3007 ft | 225 kts | 225° |
| 2026-05-01 11:33 | -6.14655 | 106.38022 | 2827 ft | 222 kts | 192° |
| 2026-05-01 11:33 | -6.16184 | 106.37859 | 2513 ft | 222 kts | 182° |
| 2026-05-01 11:34 | -6.17676 | 106.37821 | 2384 ft | 209 kts | 181° |
| 2026-05-01 11:34 | -6.19094 | 106.37802 | 2247 ft | 195 kts | 180° |
| 2026-05-01 11:34 | -6.20405 | 106.37842 | 2108 ft | 183 kts | 166° |
| 2026-05-01 11:34 | -6.21401 | 106.38494 | 2014 ft | 172 kts | 124° |
| 2026-05-01 11:35 | -6.21703 | 106.39602 | 2016 ft | 159 kts | 94° |
| 2026-05-01 11:35 | -6.21724 | 106.40685 | 2029 ft | 155 kts | 91° |
| 2026-05-01 11:35 | -6.21716 | 106.41761 | 2010 ft | 152 kts | 90° |
| 2026-05-01 11:35 | -6.21703 | 106.42825 | 2009 ft | 152 kts | 90° |
| 2026-05-01 11:36 | -6.21690 | 106.43876 | 2009 ft | 151 kts | 90° |
| 2026-05-01 11:36 | -6.21589 | 106.44926 | 2002 ft | 152 kts | 73° |
| 2026-05-01 11:36 | -6.21252 | 106.45935 | 2010 ft | 152 kts | 73° |
| 2026-05-01 11:36 | -6.21011 | 106.46967 | 2009 ft | 152 kts | 78° |
| 2026-05-01 11:37 | -6.20701 | 106.47986 | 2010 ft | 152 kts | 72° |
| 2026-05-01 11:37 | -6.20349 | 106.48986 | 2008 ft | 152 kts | 72° |
| 2026-05-01 11:37 | -6.19856 | 106.49929 | 2004 ft | 153 kts | 60° |
| 2026-05-01 11:37 | -6.19527 | 106.50936 | 2025 ft | 151 kts | 75° |
| 2026-05-01 11:38 | -6.19173 | 106.51941 | 2008 ft | 152 kts | 70° |
| 2026-05-01 11:38 | -6.18799 | 106.52927 | 2020 ft | 153 kts | 71° |
| 2026-05-01 11:38 | -6.18396 | 106.53932 | 2013 ft | 153 kts | 70° |
| 2026-05-01 11:38 | -6.18012 | 106.54916 | 1940 ft | 153 kts | 70° |
| 2026-05-01 11:39 | -6.17616 | 106.55919 | 1788 ft | 152 kts | 70° |
| 2026-05-01 11:39 | -6.17221 | 106.56916 | 1611 ft | 152 kts | 70° |
| 2026-05-01 11:39 | -6.16832 | 106.57894 | 1412 ft | 151 kts | 70° |
| 2026-05-01 11:39 | -6.16448 | 106.58860 | 1210 ft | 147 kts | 70° |
| 2026-05-01 11:40 | -6.16072 | 106.59806 | 1010 ft | 147 kts | 70° |
| 2026-05-01 11:40 | -6.15687 | 106.60755 | 781 ft | 145 kts | 69° |
| 2026-05-01 11:40 | -6.15313 | 106.61693 | 593 ft | 145 kts | 70° |
| 2026-05-01 11:40 | -6.14935 | 106.62626 | 399 ft | 143 kts | 69° |
| 2026-05-01 11:41 | -6.14565 | 106.63562 | 246 ft | 141 kts | 69° |
| 2026-05-01 11:41 | -6.14200 | 106.64486 | 94 ft | 144 kts | 71° |
| 2026-05-01 11:41 | -6.13926 | 106.65259 | 128 ft | 131 kts | 73° |